createdAt,value
2023-06-26T00:00:23.001Z,40.19
2023-06-26T00:01:23.027Z,40.20
2023-06-26T00:02:22.976Z,40.22
2023-06-26T00:03:22.999Z,40.21
2023-06-26T00:04:22.980Z,40.22
2023-06-26T00:05:22.971Z,40.25
2023-06-26T00:06:22.970Z,40.23
2023-06-26T00:07:23.029Z,40.25
2023-06-26T00:08:22.909Z,40.26
2023-06-26T00:09:22.955Z,40.26
2023-06-26T00:10:22.932Z,40.26
2023-06-26T00:11:22.931Z,40.23
2023-06-26T00:12:22.909Z,40.25
2023-06-26T00:13:22.920Z,40.24
2023-06-26T00:14:22.891Z,40.27
2023-06-26T00:15:22.893Z,40.27
2023-06-26T00:16:22.906Z,40.29
2023-06-26T00:17:22.992Z,40.32
2023-06-26T00:18:22.862Z,40.30
2023-06-26T00:19:22.853Z,40.30
2023-06-26T00:20:22.866Z,40.32
2023-06-26T00:21:22.857Z,40.30
2023-06-26T00:22:22.849Z,40.31
2023-06-26T00:23:22.850Z,40.32
2023-06-26T00:24:22.854Z,40.32
2023-06-26T00:25:22.869Z,40.34
2023-06-26T00:26:22.804Z,40.34
2023-06-26T00:27:22.805Z,40.34
2023-06-26T00:28:22.826Z,40.32
2023-06-26T00:29:22.817Z,40.33
2023-06-26T00:30:22.795Z,40.33
2023-06-26T00:31:22.877Z,40.37
2023-06-26T00:32:22.806Z,40.35
2023-06-26T00:33:22.774Z,40.33
2023-06-26T00:34:22.778Z,40.35
2023-06-26T00:35:22.776Z,40.34
2023-06-26T00:36:22.738Z,40.37
2023-06-26T00:37:22.739Z,40.35
2023-06-26T00:38:22.756Z,40.39
2023-06-26T00:39:22.713Z,40.39
2023-06-26T00:40:22.727Z,40.38
2023-06-26T00:41:22.747Z,40.38
2023-06-26T00:42:22.736Z,40.40
2023-06-26T00:43:22.720Z,40.37
2023-06-26T00:44:22.700Z,40.40
2023-06-26T00:45:30.248Z,40.38
2023-06-26T00:46:23.665Z,40.40
2023-06-26T00:47:22.751Z,40.41
2023-06-26T00:48:22.687Z,40.43
2023-06-26T00:49:22.635Z,40.40
2023-06-26T00:50:22.639Z,40.41
2023-06-26T00:51:22.642Z,40.41
2023-06-26T00:52:22.653Z,40.39
2023-06-26T00:53:22.655Z,40.41
2023-06-26T00:54:22.646Z,40.43
2023-06-26T00:55:22.594Z,40.42
2023-06-26T00:56:22.601Z,40.42
2023-06-26T00:57:22.592Z,40.42
2023-06-26T00:58:22.569Z,40.45
2023-06-26T00:59:22.590Z,40.43
2023-06-26T01:00:22.583Z,40.43
2023-06-26T01:01:22.577Z,40.45
2023-06-26T01:02:22.607Z,40.44
2023-06-26T01:03:22.631Z,40.44
2023-06-26T01:04:22.616Z,40.48
2023-06-26T01:05:22.533Z,40.46
2023-06-26T01:06:22.537Z,40.43
2023-06-26T01:07:22.613Z,40.48
2023-06-26T01:08:22.549Z,40.47
2023-06-26T01:09:22.541Z,40.48
2023-06-26T01:10:22.494Z,40.46
2023-06-26T01:11:22.497Z,40.51
2023-06-26T01:12:22.465Z,40.48
2023-06-26T01:13:22.467Z,40.48
2023-06-26T01:14:22.499Z,40.49
2023-06-26T01:15:22.490Z,40.53
2023-06-26T01:16:22.494Z,40.50
2023-06-26T01:17:22.522Z,40.48
2023-06-26T01:18:22.483Z,40.49
2023-06-26T01:19:22.476Z,40.51
2023-06-26T01:20:22.457Z,40.51
2023-06-26T01:21:22.499Z,40.52
2023-06-26T01:22:22.506Z,40.50
2023-06-26T01:23:22.484Z,40.52
2023-06-26T01:24:22.494Z,40.52
2023-06-26T01:25:22.489Z,40.52
2023-06-26T01:26:22.476Z,40.53
2023-06-26T01:27:22.480Z,40.53
2023-06-26T01:28:22.476Z,40.54
2023-06-26T01:29:22.496Z,40.54
2023-06-26T01:30:22.498Z,40.53
2023-06-26T01:31:22.538Z,40.55
2023-06-26T01:32:22.531Z,40.54
2023-06-26T01:33:22.471Z,40.54
2023-06-26T01:34:22.515Z,40.55
2023-06-26T01:35:22.530Z,40.57
2023-06-26T01:36:22.508Z,40.57
2023-06-26T01:37:22.555Z,40.56
2023-06-26T01:38:22.539Z,40.59
2023-06-26T01:39:22.533Z,40.58
2023-06-26T01:40:22.531Z,40.57
2023-06-26T01:41:22.558Z,40.57
2023-06-26T01:42:22.547Z,40.56
2023-06-26T01:43:22.589Z,40.60
2023-06-26T01:44:22.569Z,40.59
2023-06-26T01:45:22.571Z,40.61
2023-06-26T01:46:22.618Z,40.60
2023-06-26T01:47:22.621Z,40.63
2023-06-26T01:48:22.623Z,40.63
2023-06-26T01:49:22.639Z,40.62
2023-06-26T01:50:22.604Z,40.62
2023-06-26T01:51:22.637Z,40.64
2023-06-26T01:52:22.640Z,40.63
2023-06-26T01:53:22.646Z,40.59
2023-06-26T01:54:22.648Z,40.63
2023-06-26T01:55:22.667Z,40.62
2023-06-26T01:56:22.677Z,40.64
2023-06-26T01:57:22.705Z,40.62
2023-06-26T01:58:22.779Z,40.63
2023-06-26T01:59:22.744Z,40.63
2023-06-26T02:00:22.750Z,40.62
2023-06-26T02:01:22.790Z,40.62
2023-06-26T02:02:22.801Z,40.64
2023-06-26T02:03:22.826Z,40.62
2023-06-26T02:04:22.771Z,40.66
2023-06-26T02:05:22.786Z,40.66
2023-06-26T02:06:22.814Z,40.65
2023-06-26T02:07:22.990Z,40.65
2023-06-26T02:08:22.797Z,40.66
2023-06-26T02:09:22.812Z,40.65
2023-06-26T02:10:22.841Z,40.67
2023-06-26T02:11:22.844Z,40.69
2023-06-26T02:12:22.847Z,40.66
2023-06-26T02:13:22.885Z,40.67
2023-06-26T02:14:22.833Z,40.71
2023-06-26T02:15:22.859Z,40.68
2023-06-26T02:16:22.896Z,40.68
2023-06-26T02:17:22.902Z,40.69
2023-06-26T02:18:22.922Z,40.69
2023-06-26T02:19:22.946Z,40.68
2023-06-26T02:20:22.912Z,40.70
2023-06-26T02:21:22.915Z,40.67
2023-06-26T02:22:22.937Z,40.71
2023-06-26T02:23:22.954Z,40.71
2023-06-26T02:24:22.926Z,40.71
2023-06-26T02:25:22.984Z,40.73
2023-06-26T02:26:22.944Z,40.71
2023-06-26T02:27:22.993Z,40.70
2023-06-26T02:28:23.004Z,40.71
2023-06-26T02:29:22.995Z,40.71
2023-06-26T02:30:22.992Z,40.73
2023-06-26T02:31:23.063Z,40.74
2023-06-26T02:32:23.065Z,40.72
2023-06-26T02:33:23.025Z,40.72
2023-06-26T02:34:23.042Z,40.73
2023-06-26T02:35:23.050Z,40.73
2023-06-26T02:36:23.058Z,40.75
2023-06-26T02:37:23.098Z,40.73
2023-06-26T02:38:23.130Z,40.74
2023-06-26T02:39:23.063Z,40.76
2023-06-26T02:40:23.129Z,40.76
2023-06-26T02:41:23.138Z,40.75
2023-06-26T02:42:23.135Z,40.75
2023-06-26T02:43:23.141Z,40.78
2023-06-26T02:44:23.171Z,40.74
2023-06-26T02:45:23.162Z,40.76
2023-06-26T02:46:23.193Z,40.77
2023-06-26T02:47:23.237Z,40.76
2023-06-26T02:48:23.201Z,40.77
2023-06-26T02:49:23.869Z,40.75
2023-06-26T02:50:23.226Z,40.76
2023-06-26T02:51:23.247Z,40.79
2023-06-26T02:52:23.248Z,40.78
2023-06-26T02:53:23.274Z,40.77
2023-06-26T02:54:23.324Z,40.79
2023-06-26T02:55:23.636Z,40.79
2023-06-26T02:56:23.249Z,40.77
2023-06-26T02:57:23.309Z,40.80
2023-06-26T02:58:23.304Z,40.81
2023-06-26T02:59:23.320Z,40.79
2023-06-26T03:00:23.319Z,40.81
2023-06-26T03:01:23.391Z,40.83
2023-06-26T03:02:23.409Z,40.79
2023-06-26T03:03:23.363Z,40.81
2023-06-26T03:04:23.461Z,40.82
2023-06-26T03:05:23.374Z,40.82
2023-06-26T03:06:23.385Z,40.80
2023-06-26T03:07:23.419Z,40.81
2023-06-26T03:08:23.447Z,40.79
2023-06-26T03:09:23.399Z,40.81
2023-06-26T03:10:23.448Z,40.79
2023-06-26T03:11:23.406Z,40.83
2023-06-26T03:12:23.466Z,40.80
2023-06-26T03:13:23.496Z,40.82
2023-06-26T03:14:23.498Z,40.82
2023-06-26T03:15:23.518Z,40.83
2023-06-26T03:16:23.551Z,40.84
2023-06-26T03:17:23.547Z,40.82
2023-06-26T03:18:23.530Z,40.83
2023-06-26T03:19:23.531Z,40.81
2023-06-26T03:20:23.610Z,40.83
2023-06-26T03:21:23.608Z,40.83
2023-06-26T03:22:23.632Z,40.82
2023-06-26T03:23:23.653Z,40.84
2023-06-26T03:24:23.649Z,40.83
2023-06-26T03:25:23.662Z,40.81
2023-06-26T03:26:23.692Z,40.82
2023-06-26T03:27:23.723Z,40.82
2023-06-26T03:28:23.751Z,40.82
2023-06-26T03:29:23.718Z,40.81
2023-06-26T03:30:23.850Z,40.82
2023-06-26T03:31:23.933Z,40.82
2023-06-26T03:32:23.828Z,40.83
2023-06-26T03:33:23.846Z,40.80
2023-06-26T03:34:23.873Z,40.81
2023-06-26T03:35:23.871Z,40.80
2023-06-26T03:36:23.877Z,40.79
2023-06-26T03:37:23.952Z,40.79
2023-06-26T03:38:23.933Z,40.80
2023-06-26T03:39:23.935Z,40.80
2023-06-26T03:40:36.458Z,40.80
2023-06-26T03:41:25.018Z,40.78
2023-06-26T03:42:23.941Z,40.79
2023-06-26T03:43:23.919Z,40.77
2023-06-26T03:44:23.935Z,40.75
2023-06-26T03:45:23.957Z,40.75
2023-06-26T03:46:23.997Z,40.76
2023-06-26T03:47:23.930Z,40.73
2023-06-26T03:48:23.889Z,40.68
2023-06-26T03:49:23.929Z,40.56
2023-06-26T03:50:23.890Z,40.29
2023-06-26T03:51:23.880Z,40.01
2023-06-26T03:52:23.881Z,39.75
2023-06-26T03:53:23.876Z,39.52
2023-06-26T03:54:23.865Z,39.36
2023-06-26T03:55:23.841Z,39.23
2023-06-26T03:56:23.834Z,39.10
2023-06-26T03:57:23.850Z,38.99
2023-06-26T03:58:23.868Z,39.08
2023-06-26T03:59:23.820Z,39.28
2023-06-26T04:00:23.861Z,39.45
2023-06-26T04:01:23.883Z,39.59
2023-06-26T04:02:23.922Z,39.72
2023-06-26T04:03:23.967Z,39.62
2023-06-26T04:04:23.987Z,39.41
2023-06-26T04:05:24.014Z,39.42
2023-06-26T04:06:24.020Z,39.35
2023-06-26T04:07:24.042Z,39.26
2023-06-26T04:08:24.068Z,39.10
2023-06-26T04:09:24.069Z,39.07
2023-06-26T04:10:24.045Z,39.02
2023-06-26T04:11:24.089Z,38.91
2023-06-26T04:12:24.109Z,38.81
2023-06-26T04:13:24.147Z,38.77
2023-06-26T04:14:24.142Z,38.77
2023-06-26T04:15:24.157Z,38.74
2023-06-26T04:16:24.171Z,38.13
2023-06-26T04:17:24.261Z,37.31
2023-06-26T04:18:24.260Z,36.98
2023-06-26T04:19:24.287Z,37.13
2023-06-26T04:20:25.118Z,37.22
2023-06-26T04:21:24.388Z,37.33
2023-06-26T04:22:24.427Z,37.33
2023-06-26T04:23:24.444Z,37.40
2023-06-26T04:24:24.532Z,37.49
2023-06-26T04:25:24.521Z,37.45
2023-06-26T04:26:24.504Z,37.59
2023-06-26T04:27:24.519Z,37.63
2023-06-26T04:28:24.559Z,37.47
2023-06-26T04:29:24.534Z,37.49
2023-06-26T04:30:24.537Z,37.46
2023-06-26T04:31:24.589Z,37.33
2023-06-26T04:32:24.658Z,37.31
2023-06-26T04:33:24.598Z,37.25
2023-06-26T04:34:24.602Z,37.28
2023-06-26T04:35:24.617Z,36.98
2023-06-26T04:36:24.638Z,36.42
2023-06-26T04:37:24.652Z,35.67
2023-06-26T04:38:24.704Z,34.84
2023-06-26T04:39:24.658Z,34.20
2023-06-26T04:40:24.679Z,33.87
2023-06-26T04:41:24.751Z,33.78
2023-06-26T04:42:24.741Z,33.43
2023-06-26T04:43:24.758Z,32.99
2023-06-26T04:44:24.789Z,32.87
2023-06-26T04:45:24.827Z,33.54
2023-06-26T04:46:24.874Z,34.32
2023-06-26T04:47:24.958Z,33.72
2023-06-26T04:48:24.867Z,34.45
2023-06-26T04:49:24.876Z,34.81
2023-06-26T04:50:24.888Z,34.39
2023-06-26T04:51:24.887Z,34.59
2023-06-26T04:52:24.906Z,35.04
2023-06-26T04:53:24.934Z,35.47
2023-06-26T04:54:24.918Z,35.81
2023-06-26T04:55:24.962Z,36.18
2023-06-26T04:56:24.954Z,35.94
2023-06-26T04:57:25.035Z,34.99
2023-06-26T04:58:25.026Z,34.78
2023-06-26T04:59:25.084Z,34.75
2023-06-26T05:00:25.109Z,34.78
2023-06-26T05:01:25.178Z,35.43
2023-06-26T05:02:25.216Z,35.82
2023-06-26T05:03:25.241Z,35.82
2023-06-26T05:04:25.213Z,35.70
2023-06-26T05:05:25.264Z,35.69
2023-06-26T05:06:25.304Z,36.00
2023-06-26T05:07:25.421Z,36.07
2023-06-26T05:08:25.447Z,36.31
2023-06-26T05:09:25.445Z,36.15
2023-06-26T05:10:25.489Z,36.17
2023-06-26T05:11:25.455Z,36.17
2023-06-26T05:12:25.469Z,36.34
2023-06-26T05:13:25.473Z,36.66
2023-06-26T05:14:25.695Z,36.32
2023-06-26T05:15:25.527Z,36.33
2023-06-26T05:16:25.508Z,36.18
2023-06-26T05:17:25.541Z,36.30
2023-06-26T05:18:25.561Z,36.64
2023-06-26T05:19:25.601Z,36.12
2023-06-26T05:20:25.601Z,36.34
2023-06-26T05:21:25.633Z,36.20
2023-06-26T05:22:25.717Z,36.15
2023-06-26T05:23:25.757Z,35.97
2023-06-26T05:24:25.765Z,35.86
2023-06-26T05:25:25.831Z,35.90
2023-06-26T05:26:25.850Z,35.70
2023-06-26T05:27:25.893Z,35.84
2023-06-26T05:28:25.991Z,36.04
2023-06-26T05:29:26.002Z,35.93
2023-06-26T05:30:26.074Z,36.03
2023-06-26T05:31:26.131Z,36.20
2023-06-26T05:32:26.204Z,36.17
2023-06-26T05:33:26.221Z,36.38
2023-06-26T05:34:26.295Z,36.45
2023-06-26T05:35:26.424Z,36.50
2023-06-26T05:36:26.342Z,36.61
2023-06-26T05:37:26.391Z,36.69
2023-06-26T05:38:26.398Z,36.55
2023-06-26T05:39:26.463Z,36.70
2023-06-26T05:40:26.461Z,37.01
2023-06-26T05:41:26.563Z,36.95
2023-06-26T05:42:26.509Z,36.85
2023-06-26T05:43:28.782Z,36.91
2023-06-26T05:44:26.527Z,36.69
2023-06-26T05:45:26.518Z,36.89
2023-06-26T05:46:26.552Z,37.10
2023-06-26T05:47:26.650Z,37.28
2023-06-26T05:48:26.591Z,36.88
2023-06-26T05:49:26.520Z,37.12
2023-06-26T05:50:26.532Z,37.31
2023-06-26T05:51:26.496Z,37.15
2023-06-26T05:52:26.470Z,37.17
2023-06-26T05:53:26.502Z,37.33
2023-06-26T05:54:26.483Z,37.17
2023-06-26T05:55:26.488Z,37.12
2023-06-26T05:56:26.475Z,37.17
2023-06-26T05:57:26.433Z,37.20
2023-06-26T05:58:26.450Z,37.15
2023-06-26T05:59:26.420Z,37.26
2023-06-26T06:00:26.446Z,37.10
2023-06-26T06:01:26.440Z,36.68
2023-06-26T06:02:26.455Z,37.06
2023-06-26T06:03:26.511Z,37.06
2023-06-26T06:04:26.457Z,37.11
2023-06-26T06:05:26.461Z,37.24
2023-06-26T06:06:26.469Z,37.30
2023-06-26T06:07:26.466Z,37.32
2023-06-26T06:08:26.377Z,37.39
2023-06-26T06:09:26.431Z,37.38
2023-06-26T06:10:26.359Z,37.39
2023-06-26T06:11:26.366Z,37.42
2023-06-26T06:12:26.375Z,37.37
2023-06-26T06:13:26.371Z,37.38
2023-06-26T06:14:26.354Z,37.32
2023-06-26T06:15:27.082Z,37.37
2023-06-26T06:16:26.326Z,37.38
2023-06-26T06:17:26.338Z,37.34
2023-06-26T06:18:26.340Z,37.39
2023-06-26T06:19:26.384Z,37.39
2023-06-26T06:20:26.383Z,37.37
2023-06-26T06:21:26.289Z,37.35
2023-06-26T06:22:26.293Z,37.38
2023-06-26T06:23:26.269Z,37.37
2023-06-26T06:24:26.265Z,37.38
2023-06-26T06:25:26.257Z,37.38
2023-06-26T06:26:26.274Z,37.40
2023-06-26T06:27:26.210Z,37.40
2023-06-26T06:28:26.216Z,37.41
2023-06-26T06:29:26.373Z,37.43
2023-06-26T06:30:42.884Z,37.46
2023-06-26T06:31:27.268Z,37.49
2023-06-26T06:32:26.195Z,37.50
2023-06-26T06:33:26.163Z,37.51
2023-06-26T06:34:26.224Z,37.44
2023-06-26T06:35:28.866Z,37.46
2023-06-26T06:36:26.170Z,37.54
2023-06-26T06:37:26.161Z,37.55
2023-06-26T06:38:26.237Z,37.55
2023-06-26T06:39:26.213Z,37.56
2023-06-26T06:40:26.153Z,37.56
2023-06-26T06:41:26.117Z,37.55
2023-06-26T06:42:26.118Z,37.53
2023-06-26T06:43:26.120Z,37.46
2023-06-26T06:44:26.124Z,37.43
2023-06-26T06:45:26.087Z,37.42
2023-06-26T06:46:26.089Z,37.45
2023-06-26T06:47:26.152Z,37.44
2023-06-26T06:48:26.158Z,37.44
2023-06-26T06:49:26.102Z,37.48
2023-06-26T06:50:26.072Z,37.49
2023-06-26T06:51:26.054Z,37.51
2023-06-26T06:52:26.068Z,37.39
2023-06-26T06:53:26.069Z,37.53
2023-06-26T06:54:26.046Z,37.52
2023-06-26T06:55:26.020Z,37.51
2023-06-26T06:56:25.999Z,37.52
2023-06-26T06:57:26.078Z,37.54
2023-06-26T06:58:26.000Z,37.54
2023-06-26T06:59:26.003Z,37.58
2023-06-26T07:00:26.052Z,37.61
2023-06-26T07:01:26.094Z,37.64
2023-06-26T07:02:26.229Z,37.61
2023-06-26T07:03:26.333Z,37.68
2023-06-26T07:04:26.238Z,37.71
2023-06-26T07:05:26.306Z,37.66
2023-06-26T07:06:26.360Z,37.70
2023-06-26T07:07:26.460Z,37.73
2023-06-26T07:08:26.443Z,37.71
2023-06-26T07:09:26.593Z,37.68
2023-06-26T07:10:26.516Z,37.81
2023-06-26T07:11:26.530Z,37.78
2023-06-26T07:12:26.552Z,37.67
2023-06-26T07:13:26.580Z,37.67
2023-06-26T07:14:26.624Z,37.70
2023-06-26T07:15:27.820Z,37.68
2023-06-26T07:16:26.716Z,37.68
2023-06-26T07:17:26.752Z,37.70
2023-06-26T07:18:26.835Z,37.70
2023-06-26T07:19:26.866Z,37.73
2023-06-26T07:20:26.971Z,37.71
2023-06-26T07:21:27.108Z,37.66
2023-06-26T07:22:27.054Z,37.57
2023-06-26T07:23:27.085Z,37.58
2023-06-26T07:24:27.174Z,37.36
2023-06-26T07:25:27.210Z,37.54
2023-06-26T07:26:39.839Z,37.45
2023-06-26T07:27:28.251Z,37.45
2023-06-26T07:28:27.229Z,37.36
2023-06-26T07:29:27.245Z,37.23
2023-06-26T07:30:27.248Z,37.32
2023-06-26T07:31:27.263Z,37.17
2023-06-26T07:32:27.364Z,37.19
2023-06-26T07:33:27.196Z,37.22
2023-06-26T07:34:27.221Z,36.96
2023-06-26T07:35:27.185Z,36.85
2023-06-26T07:36:27.249Z,36.73
2023-06-26T07:37:27.399Z,36.73
2023-06-26T07:38:27.373Z,36.50
2023-06-26T07:39:27.811Z,36.52
2023-06-26T07:40:27.516Z,36.57
2023-06-26T07:41:27.545Z,36.67
2023-06-26T07:42:27.610Z,36.67
2023-06-26T07:43:27.608Z,36.67
2023-06-26T07:44:27.726Z,36.58
2023-06-26T07:45:27.847Z,36.53
2023-06-26T07:46:27.792Z,36.53
2023-06-26T07:47:27.832Z,36.44
2023-06-26T07:48:27.869Z,36.35
2023-06-26T07:49:27.933Z,36.17
2023-06-26T07:50:27.974Z,35.98
2023-06-26T07:51:28.014Z,35.73
2023-06-26T07:52:28.095Z,35.63
2023-06-26T07:53:28.147Z,35.67
2023-06-26T07:54:28.252Z,35.46
2023-06-26T07:55:28.249Z,35.73
2023-06-26T07:56:28.344Z,35.84
2023-06-26T07:57:28.393Z,35.80
2023-06-26T07:58:28.478Z,35.88
2023-06-26T07:59:28.544Z,35.82
2023-06-26T08:00:28.561Z,35.83
2023-06-26T08:01:28.768Z,35.90
2023-06-26T08:02:28.701Z,35.92
2023-06-26T08:03:35.151Z,35.87
2023-06-26T08:04:29.815Z,35.88
2023-06-26T08:05:28.895Z,35.75
2023-06-26T08:06:28.724Z,35.88
2023-06-26T08:07:28.849Z,35.94
2023-06-26T08:08:28.701Z,35.79
2023-06-26T08:09:28.712Z,35.92
2023-06-26T08:10:28.732Z,36.01
2023-06-26T08:11:28.665Z,35.93
2023-06-26T08:12:28.724Z,35.93
2023-06-26T08:13:28.757Z,35.80
2023-06-26T08:14:28.848Z,35.98
2023-06-26T08:15:28.884Z,35.97
2023-06-26T08:16:28.952Z,35.99
2023-06-26T08:17:30.551Z,35.90
2023-06-26T08:18:29.042Z,36.03
2023-06-26T08:19:29.118Z,36.03
2023-06-26T08:20:29.165Z,36.03
2023-06-26T08:21:29.224Z,35.75
2023-06-26T08:22:29.305Z,35.87
2023-06-26T08:23:29.382Z,35.88
2023-06-26T08:24:29.443Z,35.77
2023-06-26T08:25:29.485Z,35.87
2023-06-26T08:26:29.556Z,35.70
2023-06-26T08:27:29.568Z,35.54
2023-06-26T08:28:29.865Z,35.15
2023-06-26T08:29:29.678Z,34.93
2023-06-26T08:30:29.743Z,34.61
2023-06-26T08:31:29.774Z,34.55
2023-06-26T08:32:29.763Z,34.41
2023-06-26T08:33:29.759Z,34.37
2023-06-26T08:34:29.763Z,33.17
2023-06-26T08:35:29.848Z,33.22
2023-06-26T08:36:29.814Z,33.13
2023-06-26T08:37:29.859Z,32.49
2023-06-26T08:38:29.881Z,32.77
2023-06-26T08:39:29.967Z,32.93
2023-06-26T08:40:30.910Z,32.98
2023-06-26T08:41:30.281Z,32.18
2023-06-26T08:42:29.974Z,32.29
2023-06-26T08:43:29.960Z,32.40
2023-06-26T08:44:29.916Z,32.88
2023-06-26T08:45:30.453Z,33.22
2023-06-26T08:46:30.116Z,33.64
2023-06-26T08:47:29.980Z,33.64
2023-06-26T08:48:30.019Z,34.00
2023-06-26T08:49:30.000Z,34.31
2023-06-26T08:50:30.066Z,33.62
2023-06-26T08:51:30.022Z,33.73
2023-06-26T08:52:30.832Z,33.35
2023-06-26T08:53:30.045Z,33.81
2023-06-26T08:54:30.047Z,33.67
2023-06-26T08:55:30.054Z,33.18
2023-06-26T08:56:30.058Z,32.99
2023-06-26T08:57:30.121Z,32.59
2023-06-26T08:58:30.147Z,32.63
2023-06-26T08:59:30.222Z,32.49
2023-06-26T09:00:30.254Z,32.24
2023-06-26T09:01:30.330Z,32.30
2023-06-26T09:02:30.321Z,32.33
2023-06-26T09:03:30.408Z,32.55
2023-06-26T09:04:30.320Z,32.39
2023-06-26T09:05:30.470Z,32.28
2023-06-26T09:06:30.363Z,32.08
2023-06-26T09:07:30.505Z,31.73
2023-06-26T09:08:30.439Z,31.49
2023-06-26T09:09:30.504Z,31.46
2023-06-26T09:10:30.572Z,31.50
2023-06-26T09:11:30.618Z,31.61
2023-06-26T09:12:30.637Z,31.72
2023-06-26T09:13:30.689Z,31.81
2023-06-26T09:14:30.714Z,32.15
2023-06-26T09:15:30.755Z,32.45
2023-06-26T09:16:30.783Z,32.18
2023-06-26T09:17:30.738Z,32.16
2023-06-26T09:18:30.727Z,32.23
2023-06-26T09:19:30.715Z,32.53
2023-06-26T09:20:30.732Z,32.71
2023-06-26T09:21:30.825Z,32.58
2023-06-26T09:22:30.717Z,32.59
2023-06-26T09:23:30.771Z,32.38
2023-06-26T09:24:30.742Z,32.37
2023-06-26T09:25:30.769Z,32.32
2023-06-26T09:26:30.901Z,32.45
2023-06-26T09:27:30.888Z,32.33
2023-06-26T09:28:31.016Z,32.38
2023-06-26T09:29:31.005Z,32.32
2023-06-26T09:30:31.070Z,32.54
2023-06-26T09:31:41.187Z,32.53
2023-06-26T09:32:32.326Z,32.36
2023-06-26T09:33:31.167Z,32.35
2023-06-26T09:34:31.370Z,32.33
2023-06-26T09:35:31.161Z,32.49
2023-06-26T09:36:31.091Z,32.59
2023-06-26T09:37:31.184Z,32.85
2023-06-26T09:38:31.375Z,32.74
2023-06-26T09:39:31.087Z,32.64
2023-06-26T09:40:31.105Z,32.28
2023-06-26T09:41:31.090Z,32.12
2023-06-26T09:42:31.015Z,32.36
2023-06-26T09:43:31.024Z,32.12
2023-06-26T09:44:31.060Z,32.20
2023-06-26T09:45:31.057Z,32.25
2023-06-26T09:46:31.161Z,32.21
2023-06-26T09:47:31.050Z,32.13
2023-06-26T09:48:31.124Z,32.03
2023-06-26T09:49:31.097Z,32.15
2023-06-26T09:50:31.165Z,31.92
2023-06-26T09:51:31.262Z,31.98
2023-06-26T09:52:31.230Z,32.05
2023-06-26T09:53:31.336Z,32.05
2023-06-26T09:54:31.320Z,32.32
2023-06-26T09:55:31.336Z,32.30
2023-06-26T09:56:31.325Z,32.38
2023-06-26T09:57:31.372Z,32.39
2023-06-26T09:58:31.439Z,32.71
2023-06-26T09:59:31.455Z,32.85
2023-06-26T10:00:31.556Z,33.03
2023-06-26T10:01:31.668Z,33.13
2023-06-26T10:02:31.727Z,33.20
2023-06-26T10:03:31.691Z,33.36
2023-06-26T10:04:31.848Z,33.60
2023-06-26T10:05:31.693Z,33.60
2023-06-26T10:06:31.774Z,33.12
2023-06-26T10:07:31.830Z,32.61
2023-06-26T10:08:31.813Z,32.66
2023-06-26T10:09:31.976Z,32.54
2023-06-26T10:10:31.908Z,32.47
2023-06-26T10:11:31.959Z,32.17
2023-06-26T10:12:31.972Z,32.28
2023-06-26T10:13:32.008Z,32.29
2023-06-26T10:14:32.023Z,32.67
2023-06-26T10:15:32.150Z,32.48
2023-06-26T10:16:32.068Z,32.46
2023-06-26T10:17:32.137Z,32.65
2023-06-26T10:18:32.110Z,33.00
2023-06-26T10:19:32.168Z,32.05
2023-06-26T10:20:32.203Z,32.05
2023-06-26T10:21:32.313Z,31.28
2023-06-26T10:22:32.204Z,31.96
2023-06-26T10:23:32.155Z,31.95
2023-06-26T10:24:32.201Z,31.62
2023-06-26T10:25:32.276Z,32.14
2023-06-26T10:26:32.267Z,32.32
2023-06-26T10:27:32.271Z,32.56
2023-06-26T10:28:32.251Z,32.11
2023-06-26T10:29:32.270Z,32.35
2023-06-26T10:30:32.354Z,32.60
2023-06-26T10:31:32.444Z,32.68
2023-06-26T10:32:32.365Z,32.56
2023-06-26T10:33:32.385Z,32.49
2023-06-26T10:34:32.421Z,32.33
2023-06-26T10:35:32.443Z,32.50
2023-06-26T10:36:32.516Z,31.88
2023-06-26T10:37:32.467Z,31.49
2023-06-26T10:38:32.430Z,32.08
2023-06-26T10:39:32.440Z,31.70
2023-06-26T10:40:32.527Z,31.67
2023-06-26T10:41:32.435Z,31.87
2023-06-26T10:42:32.425Z,32.15
2023-06-26T10:43:32.462Z,31.84
2023-06-26T10:44:32.545Z,32.09
2023-06-26T10:45:32.755Z,31.80
2023-06-26T10:46:32.564Z,31.79
2023-06-26T10:47:32.774Z,31.10
2023-06-26T10:48:32.603Z,30.86
2023-06-26T10:49:32.728Z,30.57
2023-06-26T10:50:32.673Z,30.23
2023-06-26T10:51:32.735Z,30.14
2023-06-26T10:52:32.797Z,30.24
2023-06-26T10:53:32.768Z,29.83
2023-06-26T10:54:32.864Z,30.08
2023-06-26T10:55:32.872Z,30.12
2023-06-26T10:56:32.928Z,30.12
2023-06-26T10:57:32.945Z,29.82
2023-06-26T10:58:33.003Z,29.46
2023-06-26T10:59:32.988Z,28.99
2023-06-26T11:00:33.158Z,28.83
2023-06-26T11:01:33.176Z,28.32
2023-06-26T11:02:33.134Z,28.67
2023-06-26T11:03:33.138Z,28.11
2023-06-26T11:04:33.185Z,28.12
2023-06-26T11:05:33.464Z,28.21
2023-06-26T11:06:33.200Z,28.11
2023-06-26T11:07:34.616Z,27.90
2023-06-26T11:08:33.217Z,27.85
2023-06-26T11:09:33.238Z,27.90
2023-06-26T11:10:33.284Z,27.74
2023-06-26T11:11:33.279Z,27.65
2023-06-26T11:12:33.290Z,27.89
2023-06-26T11:13:33.453Z,27.87
2023-06-26T11:14:33.393Z,28.13
2023-06-26T11:15:33.329Z,28.41
2023-06-26T11:16:33.379Z,28.55
2023-06-26T11:17:33.411Z,28.84
2023-06-26T11:18:33.468Z,29.09
2023-06-26T11:19:33.511Z,29.23
2023-06-26T11:20:33.558Z,29.52
2023-06-26T11:21:33.740Z,29.57
2023-06-26T11:22:33.568Z,29.87
2023-06-26T11:23:33.574Z,29.96
2023-06-26T11:24:33.683Z,29.93
2023-06-26T11:25:36.038Z,30.09
2023-06-26T11:26:33.701Z,30.08
2023-06-26T11:27:34.877Z,30.43
2023-06-26T11:28:33.706Z,30.23
2023-06-26T11:29:33.770Z,30.47
2023-06-26T11:30:33.801Z,30.38
2023-06-26T11:31:33.811Z,30.48
2023-06-26T11:32:33.857Z,30.48
2023-06-26T11:33:33.829Z,30.52
2023-06-26T11:34:33.906Z,30.58
2023-06-26T11:35:33.909Z,30.55
2023-06-26T11:36:33.928Z,30.69
2023-06-26T11:37:33.937Z,30.67
2023-06-26T11:38:33.980Z,30.85
2023-06-26T11:39:34.059Z,30.89
2023-06-26T11:40:34.041Z,30.85
2023-06-26T11:41:34.082Z,30.99
2023-06-26T11:42:34.164Z,30.82
2023-06-26T11:43:34.214Z,30.83
2023-06-26T11:44:34.302Z,31.13
2023-06-26T11:45:34.509Z,31.04
2023-06-26T11:46:34.350Z,31.07
2023-06-26T11:47:34.517Z,31.05
2023-06-26T11:48:34.647Z,30.93
2023-06-26T11:49:34.550Z,31.20
2023-06-26T11:50:34.658Z,31.07
2023-06-26T11:51:34.676Z,31.29
2023-06-26T11:52:34.733Z,31.22
2023-06-26T11:53:34.782Z,31.34
2023-06-26T11:54:34.847Z,31.20
2023-06-26T11:55:34.897Z,31.19
2023-06-26T11:56:34.984Z,31.33
2023-06-26T11:57:35.008Z,31.44
2023-06-26T11:58:35.118Z,31.42
2023-06-26T11:59:35.154Z,31.86
2023-06-26T12:00:35.226Z,31.71
2023-06-26T12:01:35.295Z,31.89
2023-06-26T12:02:35.369Z,31.88
2023-06-26T12:03:35.431Z,31.90
2023-06-26T12:04:35.539Z,31.88
2023-06-26T12:05:35.497Z,31.73
2023-06-26T12:06:35.590Z,31.88
2023-06-26T12:07:35.780Z,31.91
2023-06-26T12:08:35.669Z,32.00
2023-06-26T12:09:35.734Z,32.02
2023-06-26T12:10:35.787Z,32.14
2023-06-26T12:11:35.851Z,31.99
2023-06-26T12:12:35.901Z,32.15
2023-06-26T12:13:35.953Z,32.02
2023-06-26T12:14:36.006Z,31.92
2023-06-26T12:15:36.051Z,32.08
2023-06-26T12:16:36.098Z,32.06
2023-06-26T12:17:36.224Z,32.08
2023-06-26T12:18:36.268Z,32.10
2023-06-26T12:19:36.294Z,31.92
2023-06-26T12:20:36.345Z,31.98
2023-06-26T12:21:36.413Z,32.00
2023-06-26T12:22:36.463Z,32.17
2023-06-26T12:23:36.510Z,31.90
2023-06-26T12:24:36.556Z,32.13
2023-06-26T12:25:36.636Z,32.08
2023-06-26T12:26:36.719Z,31.53
2023-06-26T12:27:36.758Z,31.76
2023-06-26T12:28:36.762Z,31.88
2023-06-26T12:29:36.838Z,32.06
2023-06-26T12:30:37.052Z,31.78
2023-06-26T12:31:36.995Z,31.94
2023-06-26T12:32:37.039Z,31.96
2023-06-26T12:33:37.070Z,31.93
2023-06-26T12:34:37.491Z,31.87
2023-06-26T12:35:37.187Z,31.89
2023-06-26T12:36:37.233Z,31.89
2023-06-26T12:37:37.302Z,31.54
2023-06-26T12:38:37.387Z,31.93
2023-06-26T12:39:37.440Z,31.36
2023-06-26T12:40:37.627Z,32.00
2023-06-26T12:41:37.491Z,31.82
2023-06-26T12:42:37.575Z,31.88
2023-06-26T12:43:37.646Z,32.05
2023-06-26T12:44:37.687Z,31.74
2023-06-26T12:45:37.720Z,31.69
2023-06-26T12:46:37.866Z,31.76
2023-06-26T12:47:37.849Z,31.83
2023-06-26T12:48:37.880Z,32.02
2023-06-26T12:49:37.996Z,31.70
2023-06-26T12:50:38.341Z,32.09
2023-06-26T12:51:38.057Z,31.68
2023-06-26T12:52:38.117Z,31.84